Time;durP1;ratioP1;P1;durP2;ratioP2;P2;SDS_P1;SDS_P2;PMS_P1;PMS_P2;Temp;Humidity;BMP_temperature;BMP_pressure;BME280_temperature;BME280_humidity;BME280_pressure;Samples;Min_cycle;Max_cycle;Signal;HPM_P1;HPM_P2
2022/11/23 00:02:09;;;;;;;61.63;25.42;;;;;;;;;;6089865;23;20137;-80
2022/11/23 00:04:37;;;;;;;57.58;23.42;;;;;;;;;;6091520;23;20026;-81
2022/11/23 00:07:04;;;;;;;55.33;23.85;;;;;;;;;;6091570;23;20101;-81
2022/11/23 00:09:38;;;;;;;55.53;24.73;;;;;;;;;;6090705;23;20101;-81
2022/11/23 00:12:05;;;;;;;61.42;25.10;;;;;;;;;;6089478;23;20025;-81
2022/11/23 00:14:32;;;;;;;57.05;21.98;;;;;;;;;;6091477;23;20097;-82
2022/11/23 00:17:06;;;;;;;59.13;24.27;;;;;;;;;;6090412;23;20052;-81
2022/11/23 00:19:34;;;;;;;60.90;23.85;;;;;;;;;;6090779;23;20157;-81
2022/11/23 00:22:07;;;;;;;59.95;24.15;;;;;;;;;;6092108;23;20329;-81
2022/11/23 00:24:35;;;;;;;55.90;24.23;;;;;;;;;;6091780;23;20085;-81
2022/11/23 00:27:09;;;;;;;56.45;22.55;;;;;;;;;;6090163;23;20038;-81
2022/11/23 00:29:36;;;;;;;52.67;23.67;;;;;;;;;;6089711;23;20030;-82
2022/11/23 00:32:03;;;;;;;57.35;23.27;;;;;;;;;;6091579;23;20097;-81
2022/11/23 00:34:37;;;;;;;57.08;23.95;;;;;;;;;;6091061;23;20028;-80
2022/11/23 00:37:05;;;;;;;52.22;21.42;;;;;;;;;;6091946;23;20030;-81
2022/11/23 00:39:38;;;;;;;57.88;23.23;;;;;;;;;;6091610;23;20026;-83
2022/11/23 00:42:05;;;;;;;56.67;23.70;;;;;;;;;;6090745;23;20101;-80
2022/11/23 00:44:39;;;;;;;51.13;23.10;;;;;;;;;;6091373;23;20022;-81
2022/11/23 00:47:06;;;;;;;58.25;23.02;;;;;;;;;;6090219;23;20097;-80
2022/11/23 00:49:34;;;;;;;59.28;24.02;;;;;;;;;;6090974;23;20030;-81
2022/11/23 00:52:07;;;;;;;55.78;21.45;;;;;;;;;;6090383;23;20022;-80
2022/11/23 00:54:34;;;;;;;55.45;23.00;;;;;;;;;;6091041;23;20030;-81
2022/11/23 00:57:08;;;;;;;58.42;23.65;;;;;;;;;;6090503;23;20065;-81
2022/11/23 00:59:36;;;;;;;;;;;;;;;;;;6091306;23;20086;-82
2022/11/23 01:02:03;;;;;;;60.17;23.30;;;;;;;;;;6090357;23;20008;-81
2022/11/23 01:04:38;;;;;;;59.75;25.13;;;;;;;;;;6091144;23;20098;-80
2022/11/23 01:07:17;;;;;;;63.22;24.15;;;;;;;;;;6088623;23;20026;-81
2022/11/23 01:09:51;;;;;;;54.05;23.25;;;;;;;;;;6090648;23;20030;-81
2022/11/23 01:12:19;;;;;;;51.42;23.92;;;;;;;;;;6090822;23;20129;-81
2022/11/23 01:14:53;;;;;;;56.00;23.48;;;;;;;;;;6090572;23;20125;-81
2022/11/23 01:17:20;;;;;;;60.60;24.00;;;;;;;;;;6091502;23;20022;-81
2022/11/23 01:19:54;;;;;;;57.00;23.52;;;;;;;;;;6093131;23;20062;-81
2022/11/23 01:22:22;;;;;;;61.83;24.40;;;;;;;;;;6092655;23;20110;-81
2022/11/23 01:24:55;;;;;;;62.80;26.60;;;;;;;;;;6092716;23;20543;-81
2022/11/23 01:27:23;;;;;;;67.40;26.70;;;;;;;;;;6092829;23;20118;-80
2022/11/23 01:29:57;;;;;;;66.22;26.67;;;;;;;;;;6092830;23;20037;-81
2022/11/23 01:32:24;;;;;;;69.28;27.23;;;;;;;;;;6093318;23;20105;-80
2022/11/23 01:34:51;;;;;;;77.88;27.65;;;;;;;;;;6093593;23;20125;-81
2022/11/23 01:37:24;;;;;;;69.35;26.88;;;;;;;;;;6093380;23;20062;-81
2022/11/23 01:39:51;;;;;;;64.35;26.42;;;;;;;;;;6093269;23;20070;-80
2022/11/23 01:42:39;;;;;;;68.32;26.73;;;;;;;;;;6093056;23;20057;-81
2022/11/23 01:45:25;;;;;;;72.05;26.80;;;;;;;;;;6093724;23;20106;-80
2022/11/23 01:47:59;;;;;;;66.18;25.52;;;;;;;;;;6094095;23;20027;-81
2022/11/23 01:50:26;;;;;;;68.55;25.83;;;;;;;;;;6092090;23;20065;-80
2022/11/23 01:52:53;;;;;;;64.80;25.90;;;;;;;;;;6092660;23;20476;-82
2022/11/23 01:55:27;;;;;;;67.57;24.63;;;;;;;;;;6092484;23;20088;-81
2022/11/23 01:57:54;;;;;;;;;;;;;;;;;;6093059;23;20333;-81
2022/11/23 02:00:27;;;;;;;63.22;24.65;;;;;;;;;;6068393;23;19964;-81
2022/11/23 02:02:57;;;;;;;60.65;26.58;;;;;;;;;;6093155;23;20046;-80
2022/11/23 02:05:30;;;;;;;67.57;25.60;;;;;;;;;;6092318;23;20026;-80
2022/11/23 02:08:11;;;;;;;62.70;25.08;;;;;;;;;;6099902;23;20093;-80
2022/11/23 02:10:38;;;;;;;64.90;26.02;;;;;;;;;;6092009;23;20177;-81
2022/11/23 02:13:13;;;;;;;65.63;26.00;;;;;;;;;;6091967;23;20061;-81
2022/11/23 02:15:40;;;;;;;;;;;;;;;;;;6092837;23;20101;-81
2022/11/23 02:18:12;;;;;;;57.95;23.65;;;;;;;;;;6092695;23;20197;-81
2022/11/23 02:20:45;;;;;;;;;;;;;;;;;;6092526;23;20025;-81
2022/11/23 02:23:20;;;;;;;64.10;25.48;;;;;;;;;;6091447;23;20236;-80
2022/11/23 02:25:57;;;;;;;66.45;25.27;;;;;;;;;;6091979;23;20032;-81
2022/11/23 02:28:28;;;;;;;67.07;26.15;;;;;;;;;;6091675;23;20109;-82
2022/11/23 02:31:03;;;;;;;63.42;25.77;;;;;;;;;;6091944;23;20109;-81
2022/11/23 02:33:30;;;;;;;64.28;25.83;;;;;;;;;;6091311;23;20380;-82
2022/11/23 02:35:59;;;;;;;74.68;27.20;;;;;;;;;;6091645;23;20027;-81
2022/11/23 02:38:33;;;;;;;66.47;26.27;;;;;;;;;;6092370;23;20026;-81
2022/11/23 02:41:00;;;;;;;66.95;26.75;;;;;;;;;;6091617;23;20022;-81
2022/11/23 02:43:33;;;;;;;64.47;24.65;;;;;;;;;;6091000;23;20423;-82
2022/11/23 02:46:03;;;;;;;62.10;25.45;;;;;;;;;;6092452;23;20097;-82
2022/11/23 02:48:36;;;;;;;69.85;27.10;;;;;;;;;;6090976;23;20044;-81
2022/11/23 02:51:03;;;;;;;68.57;26.08;;;;;;;;;;6091453;23;20326;-82
2022/11/23 02:53:55;;;;;;;61.30;25.35;;;;;;;;;;6109632;23;20054;-81
2022/11/23 02:56:22;;;;;;;75.45;27.50;;;;;;;;;;6091583;23;20026;-81
2022/11/23 02:58:55;;;;;;;73.20;26.77;;;;;;;;;;6091635;23;20061;-82
2022/11/23 03:01:23;;;;;;;69.90;26.23;;;;;;;;;;6091126;23;20037;-81
2022/11/23 03:03:50;;;;;;;;;;;;;;;;;;6092324;23;20105;-81
2022/11/23 03:06:23;;;;;;;66.57;24.63;;;;;;;;;;6091259;23;20414;-81
2022/11/23 03:08:57;;;;;;;72.90;26.90;;;;;;;;;;6090587;23;20539;-80
2022/11/23 03:11:38;;;;;;;68.43;26.58;;;;;;;;;;6090872;23;20404;-81
2022/11/23 03:14:06;;;;;;;70.55;26.67;;;;;;;;;;6089209;23;20054;-81
2022/11/23 03:16:39;;;;;;;68.82;23.05;;;;;;;;;;6090943;23;20145;-81
2022/11/23 03:19:07;;;;;;;63.50;25.90;;;;;;;;;;6091827;23;20105;-81
2022/11/23 03:21:34;;;;;;;63.05;26.30;;;;;;;;;;6089956;23;20102;-80
2022/11/23 03:24:08;;;;;;;75.97;27.77;;;;;;;;;;6091718;23;20471;-81
2022/11/23 03:26:35;;;;;;;64.13;25.80;;;;;;;;;;6090578;23;20511;-81
2022/11/23 03:29:02;;;;;;;71.13;27.13;;;;;;;;;;6091076;23;20407;-80
2022/11/23 03:31:35;;;;;;;69.75;27.92;;;;;;;;;;6092000;23;20022;-80
2022/11/23 03:34:03;;;;;;;67.72;26.20;;;;;;;;;;6089333;23;20097;-80
2022/11/23 03:36:30;;;;;;;69.50;27.00;;;;;;;;;;6090974;23;20027;-81
2022/11/23 03:39:04;;;;;;;64.40;27.13;;;;;;;;;;6092038;23;20117;-81
2022/11/23 03:41:31;;;;;;;64.28;26.02;;;;;;;;;;6090293;23;20045;-81
2022/11/23 03:44:05;;;;;;;72.40;27.55;;;;;;;;;;6091619;23;20049;-81
2022/11/23 03:46:32;;;;;;;66.25;26.20;;;;;;;;;;6090794;23;20102;-83
2022/11/23 03:48:59;;;;;;;71.20;26.75;;;;;;;;;;6088243;23;20027;-83
2022/11/23 03:51:33;;;;;;;63.03;26.17;;;;;;;;;;6091971;23;20073;-83
2022/11/23 03:54:00;;;;;;;62.70;26.80;;;;;;;;;;6092228;23;20109;-83
2022/11/23 03:56:27;;;;;;;64.00;27.30;;;;;;;;;;6092039;23;20022;-83
2022/11/23 03:59:01;;;;;;;72.93;27.25;;;;;;;;;;6091159;23;20555;-83
2022/11/23 04:01:28;;;;;;;66.07;26.67;;;;;;;;;;6090760;23;20109;-83
2022/11/23 04:04:01;;;;;;;70.78;26.48;;;;;;;;;;6091263;23;20023;-83
2022/11/23 04:06:29;;;;;;;65.22;25.67;;;;;;;;;;6091355;23;20030;-82
2022/11/23 04:08:56;;;;;;;66.45;26.00;;;;;;;;;;6091480;23;20101;-82
2022/11/23 04:11:29;;;;;;;64.75;26.00;;;;;;;;;;6091878;23;20462;-80
2022/11/23 04:13:57;;;;;;;61.20;27.25;;;;;;;;;;6092518;23;20297;-83
2022/11/23 04:16:31;;;;;;;62.35;25.48;;;;;;;;;;6091366;23;20133;-82
2022/11/23 04:18:58;;;;;;;60.22;25.80;;;;;;;;;;6089578;23;20022;-82
2022/11/23 04:21:25;;;;;;;56.90;23.98;;;;;;;;;;6091206;23;20068;-82
2022/11/23 04:23:58;;;;;;;60.53;25.00;;;;;;;;;;6091566;23;20455;-82
2022/11/23 04:26:26;;;;;;;63.22;25.98;;;;;;;;;;6091261;23;20113;-82
2022/11/23 04:28:53;;;;;;;60.40;25.48;;;;;;;;;;6091104;23;20027;-80
2022/11/23 04:31:30;;;;;;;67.43;27.00;;;;;;;;;;6092379;23;20033;-80
2022/11/23 04:33:57;;;;;;;62.88;24.73;;;;;;;;;;6090886;23;20022;-80
2022/11/23 04:36:30;;;;;;;50.13;21.50;;;;;;;;;;6091144;23;20018;-80
2022/11/23 04:38:58;;;;;;;61.78;24.77;;;;;;;;;;6092375;23;20046;-81
2022/11/23 04:41:25;;;;;;;56.20;24.20;;;;;;;;;;6090376;23;20052;-80
2022/11/23 04:43:58;;;;;;;63.10;25.55;;;;;;;;;;6091477;23;20026;-80
2022/11/23 04:46:26;;;;;;;60.55;24.63;;;;;;;;;;6092536;23;20065;-83
2022/11/23 04:48:53;;;;;;;64.88;25.10;;;;;;;;;;6091251;23;20106;-82
2022/11/23 04:51:26;;;;;;;57.45;24.05;;;;;;;;;;6091402;23;20054;-82
2022/11/23 04:53:54;;;;;;;60.63;25.70;;;;;;;;;;6091625;23;20105;-82
2022/11/23 04:56:27;;;;;;;62.10;25.33;;;;;;;;;;6090712;23;20443;-82
2022/11/23 04:58:57;;;;;;;62.08;25.00;;;;;;;;;;6091181;23;20106;-82
2022/11/23 05:01:25;;;;;;;64.63;26.13;;;;;;;;;;6091655;23;20022;-83
2022/11/23 05:03:59;;;;;;;60.03;24.50;;;;;;;;;;6089884;23;20086;-83
2022/11/23 05:06:26;;;;;;;59.63;24.55;;;;;;;;;;6092131;23;20105;-82
2022/11/23 05:08:53;;;;;;;61.20;24.88;;;;;;;;;;6104815;23;20033;-82
2022/11/23 05:11:26;;;;;;;60.08;23.98;;;;;;;;;;6091813;23;20037;-83
2022/11/23 05:13:54;;;;;;;52.33;22.45;;;;;;;;;;6091530;23;20022;-83
2022/11/23 05:16:28;;;;;;;51.33;24.33;;;;;;;;;;6091513;23;20019;-83
2022/11/23 05:18:55;;;;;;;62.25;23.67;;;;;;;;;;6090870;23;20068;-83
2022/11/23 05:21:22;;;;;;;54.75;21.95;;;;;;;;;;6091354;23;20101;-82
2022/11/23 05:23:56;;;;;;;65.40;23.42;;;;;;;;;;6088859;23;20098;-82
2022/11/23 05:26:23;;;;;;;57.35;25.00;;;;;;;;;;6087880;23;20404;-83
2022/11/23 05:28:57;;;;;;;52.03;23.15;;;;;;;;;;6090217;23;20472;-81
2022/11/23 05:31:24;;;;;;;55.50;22.55;;;;;;;;;;6091070;23;20026;-83
2022/11/23 05:33:51;;;;;;;55.80;22.52;;;;;;;;;;6089977;23;20407;-83
2022/11/23 05:36:25;;;;;;;51.25;21.50;;;;;;;;;;6088285;23;20468;-83
2022/11/23 05:38:52;;;;;;;58.90;23.35;;;;;;;;;;6087815;23;20125;-84
2022/11/23 05:41:26;;;;;;;53.65;22.13;;;;;;;;;;6088046;23;20367;-83
2022/11/23 05:43:53;;;;;;;51.97;22.38;;;;;;;;;;6088214;23;20114;-83
2022/11/23 05:46:20;;;;;;;53.03;23.45;;;;;;;;;;6088646;23;20480;-83
2022/11/23 05:48:53;;;;;;;49.17;21.20;;;;;;;;;;6085604;23;20544;-83
2022/11/23 05:51:21;;;;;;;51.38;21.83;;;;;;;;;;6089294;23;20106;-83
2022/11/23 05:53:56;;;;;;;48.28;19.65;;;;;;;;;;6091182;23;20109;-82
2022/11/23 05:56:23;;;;;;;45.80;20.60;;;;;;;;;;6092462;23;20106;-82
2022/11/23 05:58:50;;;;;;;46.00;20.65;;;;;;;;;;6092496;23;20018;-82
2022/11/23 06:01:23;;;;;;;39.28;17.30;;;;;;;;;;6092646;23;20026;-82
2022/11/23 06:03:51;;;;;;;39.67;19.02;;;;;;;;;;6093649;23;20026;-82
2022/11/23 06:06:25;;;;;;;44.03;19.73;;;;;;;;;;6093381;23;20034;-82
2022/11/23 06:08:58;;;;;;;39.63;16.75;;;;;;;;;;6092295;23;20539;-82
2022/11/23 06:11:40;;;;;;;37.50;18.67;;;;;;;;;;6092452;23;20065;-82
2022/11/23 06:14:07;;;;;;;45.30;20.38;;;;;;;;;;6092217;23;20059;-82
2022/11/23 06:16:41;;;;;;;43.60;20.00;;;;;;;;;;6093084;23;20022;-82
2022/11/23 06:19:08;;;;;;;41.83;18.55;;;;;;;;;;6092534;23;20023;-83
2022/11/23 06:21:35;;;;;;;42.60;19.42;;;;;;;;;;6092376;23;20097;-82
2022/11/23 06:24:16;;;;;;;40.72;19.23;;;;;;;;;;6092641;23;20030;-83
2022/11/23 06:26:53;;;;;;;41.80;19.17;;;;;;;;;;6092274;23;20026;-82
2022/11/23 06:29:20;;;;;;;38.97;18.60;;;;;;;;;;6091796;23;20472;-82
2022/11/23 06:31:47;;;;;;;33.63;16.75;;;;;;;;;;6093202;23;20030;-83
2022/11/23 06:34:20;;;;;;;36.80;17.50;;;;;;;;;;6091498;23;20121;-83
2022/11/23 06:36:48;;;;;;;38.08;16.65;;;;;;;;;;6091311;23;20448;-83
2022/11/23 06:39:21;;;;;;;39.70;19.08;;;;;;;;;;6092639;23;20022;-83
2022/11/23 06:41:48;;;;;;;28.70;13.45;;;;;;;;;;6093324;23;20057;-84
2022/11/23 06:44:16;;;;;;;34.95;15.95;;;;;;;;;;6092085;23;20029;-83
2022/11/23 06:46:50;;;;;;;36.47;17.40;;;;;;;;;;6092832;23;20022;-83
2022/11/23 06:49:19;;;;;;;;;;;;;;;;;;6093310;23;20058;-83
2022/11/23 06:51:53;;;;;;;32.28;16.48;;;;;;;;;;6093060;23;19925;-83
2022/11/23 06:54:20;;;;;;;35.05;15.55;;;;;;;;;;6092373;23;20105;-83
2022/11/23 06:56:53;;;;;;;38.22;17.27;;;;;;;;;;6092373;23;20085;-83
2022/11/23 06:59:27;;;;;;;32.40;15.80;;;;;;;;;;6092434;23;20025;-84
2022/11/23 07:02:00;;;;;;;30.58;13.25;;;;;;;;;;6090313;23;20025;-83
2022/11/23 07:04:33;;;;;;;33.28;16.58;;;;;;;;;;6092493;23;20041;-83
2022/11/23 07:07:01;;;;;;;34.30;14.30;;;;;;;;;;6092084;23;20018;-83
2022/11/23 07:09:28;;;;;;;36.78;16.95;;;;;;;;;;6110335;23;20044;-83
2022/11/23 07:12:03;;;;;;;30.25;15.15;;;;;;;;;;6113078;23;20058;-84
2022/11/23 07:14:30;;;;;;;33.63;16.75;;;;;;;;;;6115175;23;20026;-84
2022/11/23 07:16:57;;;;;;;22.30;10.80;;;;;;;;;;6091505;23;20027;-84
2022/11/23 07:19:31;;;;;;;32.63;15.48;;;;;;;;;;6091776;23;20050;-82
2022/11/23 07:21:58;;;;;;;30.00;15.15;;;;;;;;;;6091876;23;20026;-84
2022/11/23 07:24:33;;;;;;;31.17;16.15;;;;;;;;;;6113597;23;20078;-83
2022/11/23 07:27:06;;;;;;;31.13;15.05;;;;;;;;;;6092522;23;20022;-83
2022/11/23 07:29:39;;;;;;;25.40;12.20;;;;;;;;;;6092209;23;20544;-84
2022/11/23 07:32:14;;;;;;;31.75;15.23;;;;;;;;;;6091083;23;20359;-83
2022/11/23 07:34:47;;;;;;;28.05;14.68;;;;;;;;;;6091431;23;20023;-83
2022/11/23 07:37:28;;;;;;;24.23;10.00;;;;;;;;;;6090396;23;20026;-84
2022/11/23 07:40:02;;;;;;;18.27;8.45;;;;;;;;;;6091443;23;20093;-84
2022/11/23 07:42:30;;;;;;;;;;;;;;;;;;6091713;23;20062;-83
2022/11/23 07:45:10;;;;;;;25.48;11.70;;;;;;;;;;6091941;23;20354;-83
2022/11/23 07:47:38;;;;;;;22.85;10.20;;;;;;;;;;6092094;23;20019;-83
2022/11/23 07:50:12;;;;;;;25.25;13.20;;;;;;;;;;6091806;23;20026;-84
2022/11/23 07:52:40;;;;;;;19.23;9.18;;;;;;;;;;6092457;23;20029;-83
2022/11/23 07:55:14;;;;;;;23.27;13.10;;;;;;;;;;6092315;23;20101;-83
2022/11/23 07:57:41;;;;;;;26.77;14.05;;;;;;;;;;6092225;23;20109;-84
2022/11/23 08:00:08;;;;;;;26.52;14.38;;;;;;;;;;6092115;23;20389;-84
2022/11/23 08:02:43;;;;;;;25.48;13.95;;;;;;;;;;6092203;23;20027;-84
2022/11/23 08:05:34;;;;;;;22.90;12.55;;;;;;;;;;6092949;23;20426;-83
2022/11/23 08:08:14;;;;;;;18.60;10.52;;;;;;;;;;6113174;23;20033;-83
2022/11/23 08:10:42;;;;;;;17.55;8.95;;;;;;;;;;6091910;23;20044;-83
2022/11/23 08:13:19;;;;;;;24.67;12.77;;;;;;;;;;6093185;23;20098;-82
2022/11/23 08:15:47;;;;;;;16.63;9.20;;;;;;;;;;6113543;23;20026;-83
2022/11/23 08:18:20;;;;;;;23.40;12.35;;;;;;;;;;6092278;23;20026;-84
2022/11/23 08:20:53;;;;;;;19.65;11.57;;;;;;;;;;6092220;23;20032;-83
2022/11/23 08:23:21;;;;;;;25.85;12.63;;;;;;;;;;6091503;23;20113;-83
2022/11/23 08:25:55;;;;;;;20.75;11.80;;;;;;;;;;6091755;23;20026;-83
2022/11/23 08:28:22;;;;;;;19.40;11.13;;;;;;;;;;6115680;23;20029;-83
2022/11/23 08:30:49;;;;;;;20.42;10.50;;;;;;;;;;6091130;23;20058;-83
2022/11/23 08:33:24;;;;;;;21.13;11.73;;;;;;;;;;6092296;23;20472;-83
2022/11/23 08:35:51;;;;;;;23.25;12.07;;;;;;;;;;6090964;23;20337;-83
2022/11/23 08:38:25;;;;;;;18.92;10.75;;;;;;;;;;6090468;23;20032;-83
2022/11/23 08:40:52;;;;;;;18.98;10.95;;;;;;;;;;6090787;23;20463;-83
2022/11/23 08:43:19;;;;;;;23.83;11.55;;;;;;;;;;6091547;23;20033;-83
2022/11/23 08:45:59;;;;;;;20.88;11.50;;;;;;;;;;6091559;23;20018;-82
2022/11/23 08:48:32;;;;;;;14.57;7.15;;;;;;;;;;6090563;23;20480;-83
2022/11/23 08:51:07;;;;;;;17.95;9.88;;;;;;;;;;6091277;23;20022;-83
2022/11/23 08:53:34;;;;;;;23.08;11.40;;;;;;;;;;6091200;23;20563;-82
2022/11/23 08:56:03;;;;;;;14.75;8.57;;;;;;;;;;6091444;23;20040;-82
2022/11/23 08:58:37;;;;;;;17.27;9.75;;;;;;;;;;6091575;23;20101;-82
2022/11/23 09:01:08;;;;;;;19.33;11.00;;;;;;;;;;6091193;23;20026;-82
2022/11/23 09:03:36;;;;;;;18.50;10.45;;;;;;;;;;6091462;23;20033;-82
2022/11/23 09:06:10;;;;;;;15.38;10.32;;;;;;;;;;6092370;23;20097;-82
2022/11/23 09:08:37;;;;;;;14.80;8.10;;;;;;;;;;6091361;23;20023;-83
2022/11/23 09:11:18;;;;;;;19.60;11.18;;;;;;;;;;6091570;23;20109;-83
2022/11/23 09:13:45;;;;;;;15.57;10.30;;;;;;;;;;6092007;23;20029;-82
2022/11/23 09:16:19;;;;;;;19.48;10.63;;;;;;;;;;6090831;23;20057;-82
2022/11/23 09:18:48;;;;;;;17.13;10.00;;;;;;;;;;6091517;23;20093;-82
2022/11/23 09:21:21;;;;;;;14.43;8.10;;;;;;;;;;6091469;23;20498;-82
2022/11/23 09:23:49;;;;;;;17.65;9.57;;;;;;;;;;6092267;23;20389;-83
2022/11/23 09:26:16;;;;;;;13.68;7.80;;;;;;;;;;6066064;23;20348;-83
2022/11/23 09:28:50;;;;;;;15.50;8.65;;;;;;;;;;6091972;23;20050;-83
2022/11/23 09:31:17;;;;;;;16.17;8.63;;;;;;;;;;6091263;23;20097;-83
2022/11/23 09:33:54;;;;;;;17.60;9.60;;;;;;;;;;6092327;23;20038;-82
2022/11/23 09:36:24;;;;;;;14.95;10.18;;;;;;;;;;6092093;23;20048;-82
2022/11/23 09:38:58;;;;;;;15.23;9.38;;;;;;;;;;6092587;23;20486;-82
2022/11/23 09:41:44;;;;;;;14.57;8.43;;;;;;;;;;6094224;23;20117;-82
2022/11/23 09:44:18;;;;;;;14.25;8.18;;;;;;;;;;6093583;23;20073;-83
2022/11/23 09:46:55;;;;;;;13.95;8.50;;;;;;;;;;6093292;23;20081;-82
2022/11/23 09:49:37;;;;;;;13.02;8.20;;;;;;;;;;6094183;23;20388;-82
2022/11/23 09:52:08;;;;;;;16.50;8.05;;;;;;;;;;6091692;23;20421;-82
2022/11/23 09:54:43;;;;;;;12.48;7.57;;;;;;;;;;6069934;23;20023;-82
2022/11/23 09:57:12;;;;;;;11.43;6.63;;;;;;;;;;6093294;23;20062;-82
2022/11/23 09:59:41;;;;;;;11.85;6.97;;;;;;;;;;6092704;23;20109;-82
2022/11/23 10:02:19;;;;;;;11.43;6.30;;;;;;;;;;6093445;23;20355;-82
2022/11/23 10:04:46;;;;;;;10.85;6.88;;;;;;;;;;6092693;23;20097;-81
2022/11/23 10:07:17;;;;;;;10.15;6.32;;;;;;;;;;6093027;23;20097;-82
2022/11/23 10:10:05;;;;;;;9.80;6.35;;;;;;;;;;6092521;23;20072;-82
2022/11/23 10:12:44;;;;;;;10.45;5.88;;;;;;;;;;6069940;23;20105;-82
2022/11/23 10:15:23;;;;;;;9.02;5.55;;;;;;;;;;6093602;23;20031;-82
2022/11/23 10:17:53;;;;;;;10.38;5.57;;;;;;;;;;6093661;23;20101;-82
2022/11/23 10:20:42;;;;;;;9.98;6.10;;;;;;;;;;6069461;23;20097;-82
2022/11/23 10:23:16;;;;;;;10.20;6.20;;;;;;;;;;6093136;23;20076;-82
2022/11/23 10:25:51;;;;;;;9.57;6.15;;;;;;;;;;6094347;23;20022;-83
2022/11/23 10:28:22;;;;;;;9.25;5.93;;;;;;;;;;6092747;23;20097;-82
2022/11/23 10:31:03;;;;;;;8.95;5.80;;;;;;;;;;6092246;23;20401;-81
2022/11/23 10:33:34;;;;;;;9.45;5.22;;;;;;;;;;6092942;23;20065;-82
2022/11/23 10:36:09;;;;;;;8.80;6.00;;;;;;;;;;6067911;23;20033;-82
2022/11/23 10:38:37;;;;;;;11.38;5.60;;;;;;;;;;6092052;23;20102;-81
2022/11/23 10:41:12;;;;;;;10.77;6.13;;;;;;;;;;6093035;23;20065;-82
2022/11/23 10:43:49;;;;;;;6.80;4.22;;;;;;;;;;6093417;23;20068;-81
2022/11/23 10:46:25;;;;;;;7.65;4.15;;;;;;;;;;6092223;23;20026;-81
2022/11/23 10:48:53;;;;;;;7.70;5.47;;;;;;;;;;6092626;23;20050;-82
2022/11/23 10:51:29;;;;;;;8.18;4.72;;;;;;;;;;6092477;23;20026;-82
2022/11/23 10:53:58;;;;;;;7.45;4.53;;;;;;;;;;6092728;23;20042;-82
2022/11/23 10:56:31;;;;;;;8.35;5.90;;;;;;;;;;6092428;23;20018;-81
2022/11/23 10:59:05;;;;;;;7.28;4.78;;;;;;;;;;6092222;23;20033;-81
2022/11/23 11:01:38;;;;;;;8.00;5.30;;;;;;;;;;6092045;23;20030;-82
2022/11/23 11:04:21;;;;;;;8.68;5.65;;;;;;;;;;6092488;23;20026;-82
2022/11/23 11:07:15;;;;;;;8.80;5.63;;;;;;;;;;6091583;23;20033;-82
2022/11/23 11:09:48;;;;;;;7.80;5.72;;;;;;;;;;6091382;23;20037;-81
2022/11/23 11:12:22;;;;;;;8.68;5.20;;;;;;;;;;6092163;23;20102;-82
2022/11/23 11:14:56;;;;;;;8.23;5.47;;;;;;;;;;6090439;23;20028;-81
2022/11/23 11:17:38;;;;;;;9.57;5.70;;;;;;;;;;6091617;23;20345;-81
2022/11/23 11:20:24;;;;;;;7.55;5.68;;;;;;;;;;6091619;23;20026;-82
2022/11/23 11:22:59;;;;;;;6.32;4.25;;;;;;;;;;6091566;23;20029;-81
2022/11/23 11:25:29;;;;;;;7.07;5.03;;;;;;;;;;6092185;23;20029;-81
2022/11/23 11:28:18;;;;;;;7.25;5.25;;;;;;;;;;6091552;23;20024;-81
2022/11/23 11:30:50;;;;;;;7.80;5.40;;;;;;;;;;6091313;23;20050;-81
2022/11/23 11:33:31;;;;;;;8.75;5.72;;;;;;;;;;6092086;23;20109;-81
2022/11/23 11:36:03;;;;;;;8.55;5.20;;;;;;;;;;6090722;23;20475;-81
2022/11/23 11:38:38;;;;;;;9.48;6.10;;;;;;;;;;6067975;23;20033;-81
2022/11/23 11:41:08;;;;;;;8.55;5.97;;;;;;;;;;6091623;23;20023;-81
2022/11/23 11:43:35;;;;;;;7.32;5.05;;;;;;;;;;6091103;23;20105;-81
2022/11/23 11:46:14;;;;;;;7.93;5.53;;;;;;;;;;6091230;23;20078;-81
2022/11/23 11:48:59;;;;;;;7.63;4.90;;;;;;;;;;6091276;23;20399;-80
2022/11/23 11:51:35;;;;;;;8.02;5.15;;;;;;;;;;6092427;23;20026;-81
2022/11/23 11:54:13;;;;;;;7.15;3.85;;;;;;;;;;6092512;23;20022;-82
2022/11/23 11:56:48;;;;;;;6.90;4.03;;;;;;;;;;6066871;23;20026;-81
2022/11/23 11:59:25;;;;;;;7.47;4.97;;;;;;;;;;6091905;23;20359;-81
2022/11/23 12:02:14;;;;;;;7.30;4.72;;;;;;;;;;6091356;23;20022;-82
2022/11/23 12:04:47;;;;;;;7.60;5.40;;;;;;;;;;6067877;23;20037;-81
2022/11/23 12:07:24;;;;;;;8.65;5.45;;;;;;;;;;6090913;23;20430;-82
2022/11/23 12:10:10;;;;;;;8.25;5.25;;;;;;;;;;6091027;23;20397;-82
2022/11/23 12:12:37;;;;;;;9.48;5.00;;;;;;;;;;6066245;23;20034;-81
2022/11/23 12:15:18;;;;;;;8.32;4.93;;;;;;;;;;6068445;23;20022;-82
2022/11/23 12:18:17;;;;;;;6.95;4.38;;;;;;;;;;6090876;23;20029;-81
2022/11/23 12:21:04;;;;;;;6.57;4.15;;;;;;;;;;6092432;23;20065;-82
2022/11/23 12:23:59;;;;;;;8.25;5.35;;;;;;;;;;6091782;23;20547;-82
2022/11/23 12:26:46;;;;;;;7.35;5.03;;;;;;;;;;6092228;23;20057;-82
2022/11/23 12:29:16;;;;;;;6.57;4.63;;;;;;;;;;6091895;23;20032;-82
2022/11/23 12:31:52;;;;;;;7.95;4.50;;;;;;;;;;6067908;23;20106;-81
2022/11/23 12:34:25;;;;;;;7.13;4.00;;;;;;;;;;6091355;23;20058;-82
2022/11/23 12:37:18;;;;;;;5.40;2.65;;;;;;;;;;6091426;23;20052;-80
2022/11/23 12:39:56;;;;;;;5.10;3.30;;;;;;;;;;6091905;23;20098;-82
2022/11/23 12:42:42;;;;;;;7.20;4.25;;;;;;;;;;6066341;23;20028;-82
2022/11/23 12:45:25;;;;;;;8.95;5.97;;;;;;;;;;6092293;23;20766;-82
2022/11/23 12:47:58;;;;;;;7.75;3.75;;;;;;;;;;6091737;23;20101;-82
2022/11/23 12:50:35;;;;;;;7.28;5.07;;;;;;;;;;6091676;23;20538;-83
2022/11/23 12:53:30;;;;;;;8.55;5.47;;;;;;;;;;6091805;23;20097;-82
2022/11/23 12:56:06;;;;;;;7.75;4.95;;;;;;;;;;6072247;23;20023;-82
2022/11/23 12:58:41;;;;;;;7.20;4.55;;;;;;;;;;6091557;23;20023;-82
2022/11/23 13:01:20;;;;;;;10.02;5.20;;;;;;;;;;6065945;23;20028;-82
2022/11/23 13:04:15;;;;;;;7.43;4.93;;;;;;;;;;6091234;23;20027;-83
2022/11/23 13:06:50;;;;;;;7.75;4.65;;;;;;;;;;6065607;23;20057;-83
2022/11/23 13:10:09;;;;;;;8.27;4.50;;;;;;;;;;6090989;23;20027;-82
2022/11/23 13:12:37;;;;;;;7.35;4.95;;;;;;;;;;6092475;23;20061;-82
2022/11/23 13:15:17;;;;;;;8.23;3.58;;;;;;;;;;6092474;23;20451;-82
2022/11/23 13:17:47;;;;;;;7.90;3.47;;;;;;;;;;6092771;23;20026;-81
2022/11/23 13:20:24;;;;;;;7.90;3.83;;;;;;;;;;6093261;23;20356;-82
2022/11/23 13:22:52;;;;;;;5.95;3.28;;;;;;;;;;6092771;23;20022;-81
2022/11/23 13:25:21;;;;;;;8.88;4.63;;;;;;;;;;6093006;23;20102;-82
2022/11/23 13:27:56;;;;;;;9.13;6.05;;;;;;;;;;6092075;23;20061;-82
2022/11/23 13:30:32;;;;;;;8.85;5.63;;;;;;;;;;6093257;23;20022;-82
2022/11/23 13:33:36;;;;;;;8.48;5.63;;;;;;;;;;6072154;23;20367;-82
2022/11/23 13:36:04;;;;;;;6.32;3.70;;;;;;;;;;6093135;23;20101;-82
2022/11/23 13:38:45;;;;;;;10.10;5.13;;;;;;;;;;6092833;23;20023;-83
2022/11/23 13:41:31;;;;;;;8.85;4.88;;;;;;;;;;6092764;23;20109;-82
2022/11/23 13:44:14;;;;;;;6.75;4.47;;;;;;;;;;6092478;23;20468;-83
2022/11/23 13:46:42;;;;;;;7.60;4.15;;;;;;;;;;6067731;23;20121;-83
2022/11/23 13:49:34;;;;;;;8.43;4.88;;;;;;;;;;6092307;23;20026;-82
2022/11/23 13:52:06;;;;;;;8.48;4.85;;;;;;;;;;6093590;23;20135;-82
2022/11/23 13:54:40;;;;;;;9.23;4.65;;;;;;;;;;6093318;23;20024;-82
2022/11/23 13:57:13;;;;;;;8.57;5.55;;;;;;;;;;6092780;23;20034;-82
2022/11/23 13:59:48;;;;;;;8.52;4.35;;;;;;;;;;6094375;23;20064;-81
2022/11/23 14:02:27;;;;;;;7.25;3.95;;;;;;;;;;6093314;23;20030;-82
2022/11/23 14:05:29;;;;;;;6.15;3.53;;;;;;;;;;6092488;23;20077;-82
2022/11/23 14:08:18;;;;;;;8.25;4.35;;;;;;;;;;6092394;23;20085;-82
2022/11/23 14:11:00;;;;;;;8.60;4.95;;;;;;;;;;6063942;23;20027;-82
2022/11/23 14:13:32;;;;;;;8.00;5.03;;;;;;;;;;6063233;23;20027;-82
2022/11/23 14:16:12;;;;;;;6.88;4.45;;;;;;;;;;6039956;23;20019;-82
2022/11/23 14:18:48;;;;;;;8.75;5.30;;;;;;;;;;6063355;23;20027;-83
2022/11/23 14:21:37;;;;;;;6.05;3.65;;;;;;;;;;6063180;23;20407;-82
2022/11/23 14:24:07;;;;;;;7.75;4.78;;;;;;;;;;6065062;23;20074;-83
2022/11/23 14:27:10;;;;;;;5.13;3.38;;;;;;;;;;6046276;23;20524;-82
2022/11/23 14:30:05;;;;;;;8.25;4.75;;;;;;;;;;6064764;23;20027;-82
2022/11/23 14:32:51;;;;;;;5.35;3.35;;;;;;;;;;6064356;23;20069;-82
2022/11/23 14:35:24;;;;;;;7.03;3.80;;;;;;;;;;6063869;23;20365;-83
2022/11/23 14:38:27;;;;;;;5.05;3.60;;;;;;;;;;6064901;23;20094;-83
2022/11/23 14:40:59;;;;;;;8.30;5.38;;;;;;;;;;6063096;23;20046;-82
2022/11/23 14:43:40;;;;;;;9.95;6.07;;;;;;;;;;6062888;23;20512;-83
2022/11/23 14:46:13;;;;;;;6.05;3.95;;;;;;;;;;6063558;23;20752;-82
2022/11/23 14:48:47;;;;;;;7.32;4.20;;;;;;;;;;6063356;23;20348;-82
2022/11/23 14:51:15;;;;;;;8.95;3.97;;;;;;;;;;6062930;23;20033;-83
2022/11/23 14:53:53;;;;;;;5.60;3.38;;;;;;;;;;6063044;23;20109;-83
2022/11/23 14:56:22;;;;;;;8.88;4.50;;;;;;;;;;6038865;23;20317;-83
2022/11/23 14:58:59;;;;;;;6.25;3.60;;;;;;;;;;6063561;23;20027;-82
2022/11/23 15:01:27;;;;;;;7.63;5.05;;;;;;;;;;6063215;23;20061;-83
2022/11/23 15:04:07;;;;;;;6.00;3.60;;;;;;;;;;6062618;23;20657;-83
2022/11/23 15:06:43;;;;;;;6.75;3.72;;;;;;;;;;6063601;23;20410;-81